Time;durP1;ratioP1;P1;durP2;ratioP2;P2;SDS_P1;SDS_P2;PMS_P1;PMS_P2;Temp;Humidity;BMP_temperature;BMP_pressure;BME280_temperature;BME280_humidity;BME280_pressure;Samples;Min_cycle;Max_cycle;Signal;HPM_P1;HPM_P2
2023/01/02 00:01:43;;;;;;;11.77;3.47;;;;;;;;;;4989850;28;20041;-70
2023/01/02 00:04:08;;;;;;;9.50;3.30;;;;;;;;;;4986948;28;20156;-70
2023/01/02 00:06:37;;;;;;;10.10;3.70;;;;;;;;;;5002850;28;20033;-70
2023/01/02 00:09:04;;;;;;;5.65;3.20;;;;;;;;;;5014755;28;20018;-70
2023/01/02 00:11:30;;;;;;;8.77;3.60;;;;;;;;;;5014036;28;20114;-70
2023/01/02 00:13:56;;;;;;;8.52;3.67;;;;;;;;;;5014649;28;20154;-70
2023/01/02 00:16:22;;;;;;;8.23;3.35;;;;;;;;;;5014726;28;20202;-68
2023/01/02 00:18:47;;;;;;;9.18;3.50;;;;;;;;;;5014615;28;20108;-70
2023/01/02 00:21:12;;;;;;;8.77;3.40;;;;;;;;;;5014539;28;20022;-70
2023/01/02 00:23:38;;;;;;;9.75;3.97;;;;;;;;;;5014606;28;20037;-70
2023/01/02 00:26:03;;;;;;;8.00;3.33;;;;;;;;;;5014677;28;20464;-70
2023/01/02 00:28:29;;;;;;;10.63;4.10;;;;;;;;;;5014141;28;20431;-69
2023/01/02 00:30:55;;;;;;;9.57;4.45;;;;;;;;;;5013030;28;20054;-71
2023/01/02 00:33:21;;;;;;;10.70;4.63;;;;;;;;;;5014310;28;20040;-69
2023/01/02 00:35:47;;;;;;;11.50;4.47;;;;;;;;;;5014321;28;20032;-70
2023/01/02 00:38:13;;;;;;;10.20;4.22;;;;;;;;;;5014401;28;20021;-70
2023/01/02 00:40:39;;;;;;;8.40;3.65;;;;;;;;;;5014114;28;20072;-70
2023/01/02 00:43:04;;;;;;;10.52;4.50;;;;;;;;;;5013794;28;20045;-68
2023/01/02 00:45:30;;;;;;;8.05;4.05;;;;;;;;;;5014159;28;20075;-69
2023/01/02 00:47:55;;;;;;;7.82;3.72;;;;;;;;;;4997509;28;20491;-69
2023/01/02 00:50:21;;;;;;;8.80;4.15;;;;;;;;;;4979537;28;20503;-70
2023/01/02 00:52:46;;;;;;;9.85;3.90;;;;;;;;;;4991863;28;20027;-69
2023/01/02 00:55:11;;;;;;;6.72;3.58;;;;;;;;;;4990589;28;20031;-69
2023/01/02 00:57:37;;;;;;;9.00;3.75;;;;;;;;;;4991878;28;20025;-69
2023/01/02 01:00:06;;;;;;;7.28;3.70;;;;;;;;;;4994751;28;20046;-69
2023/01/02 01:02:32;;;;;;;9.77;4.25;;;;;;;;;;4994197;28;20674;-69
2023/01/02 01:04:57;;;;;;;7.65;3.88;;;;;;;;;;4999507;28;20112;-70
2023/01/02 01:07:23;;;;;;;7.80;3.67;;;;;;;;;;5006657;28;20030;-70
2023/01/02 01:09:48;;;;;;;11.32;4.20;;;;;;;;;;5004259;28;20026;-70
2023/01/02 01:12:14;;;;;;;11.80;5.10;;;;;;;;;;4999524;28;20030;-69
2023/01/02 01:14:39;;;;;;;8.35;4.10;;;;;;;;;;5009927;28;20034;-69
2023/01/02 01:17:05;;;;;;;7.28;4.03;;;;;;;;;;4997943;28;20382;-68
2023/01/02 01:19:32;;;;;;;12.43;4.78;;;;;;;;;;5005466;28;20066;-70
2023/01/02 01:21:57;;;;;;;12.88;4.40;;;;;;;;;;5003488;28;20087;-70
2023/01/02 01:24:23;;;;;;;10.27;4.82;;;;;;;;;;4989593;28;20030;-70
2023/01/02 01:26:48;;;;;;;7.32;4.25;;;;;;;;;;4989162;28;20023;-70
2023/01/02 01:29:13;;;;;;;10.48;4.60;;;;;;;;;;4992319;28;20034;-70
2023/01/02 01:31:39;;;;;;;11.85;5.13;;;;;;;;;;4992418;28;20463;-71
2023/01/02 01:34:04;;;;;;;15.63;5.63;;;;;;;;;;4990219;28;20023;-70
2023/01/02 01:36:30;;;;;;;26.48;9.18;;;;;;;;;;4987574;28;20033;-68
2023/01/02 01:38:55;;;;;;;26.67;8.80;;;;;;;;;;4991932;28;20117;-68
2023/01/02 01:41:23;;;;;;;18.85;7.50;;;;;;;;;;4992930;28;20035;-70
2023/01/02 01:43:53;;;;;;;14.93;6.57;;;;;;;;;;4993957;28;20070;-70
2023/01/02 01:46:30;;;;;;;17.02;6.28;;;;;;;;;;4992750;28;20026;-70
2023/01/02 01:49:09;;;;;;;11.98;5.38;;;;;;;;;;4992701;28;20112;-70
2023/01/02 01:51:38;;;;;;;14.63;5.30;;;;;;;;;;4994033;28;20044;-68
2023/01/02 01:54:16;;;;;;;15.25;6.15;;;;;;;;;;4993720;28;20045;-70
2023/01/02 01:56:48;;;;;;;20.85;9.00;;;;;;;;;;4992198;28;20037;-70
2023/01/02 01:59:15;;;;;;;18.65;8.88;;;;;;;;;;4993744;28;20684;-70
2023/01/02 02:01:42;;;;;;;15.90;9.02;;;;;;;;;;4993938;28;20460;-70
2023/01/02 02:04:09;;;;;;;20.17;10.10;;;;;;;;;;4993563;28;20018;-70
2023/01/02 02:06:34;;;;;;;18.05;8.55;;;;;;;;;;4993638;28;20479;-69
2023/01/02 02:09:12;;;;;;;15.52;6.90;;;;;;;;;;4993304;28;20096;-70
2023/01/02 02:11:38;;;;;;;11.57;5.72;;;;;;;;;;4994435;28;20029;-71
2023/01/02 02:14:04;;;;;;;14.57;7.40;;;;;;;;;;4993555;28;20073;-70
2023/01/02 02:16:35;;;;;;;10.25;6.13;;;;;;;;;;4993483;28;20023;-70
2023/01/02 02:19:37;;;;;;;13.20;4.90;;;;;;;;;;4993575;28;20034;-69
2023/01/02 02:22:24;;;;;;;9.25;4.63;;;;;;;;;;4971831;28;20524;-70
2023/01/02 02:25:08;;;;;;;9.73;4.60;;;;;;;;;;4982245;28;20030;-70
2023/01/02 02:27:48;;;;;;;12.65;5.07;;;;;;;;;;4991170;28;20053;-70
2023/01/02 02:30:22;;;;;;;12.73;5.85;;;;;;;;;;4987892;28;20154;-70
2023/01/02 02:33:10;;;;;;;13.95;5.68;;;;;;;;;;4991002;28;20038;-70
2023/01/02 02:35:48;;;;;;;13.95;5.32;;;;;;;;;;4994037;28;20030;-69
2023/01/02 02:38:31;;;;;;;10.27;4.97;;;;;;;;;;4994866;28;20030;-70
2023/01/02 02:41:15;;;;;;;11.05;5.70;;;;;;;;;;4981458;28;20062;-70
2023/01/02 02:43:50;;;;;;;11.85;6.13;;;;;;;;;;4984484;28;20050;-70
2023/01/02 02:46:26;;;;;;;10.10;5.50;;;;;;;;;;4994748;28;20038;-69
2023/01/02 02:49:27;;;;;;;10.85;5.25;;;;;;;;;;4968692;28;20062;-70
2023/01/02 02:52:04;;;;;;;10.32;5.05;;;;;;;;;;4973113;28;20073;-70
2023/01/02 02:54:34;;;;;;;11.25;6.00;;;;;;;;;;4988407;28;20026;-70
2023/01/02 02:57:00;;;;;;;;;;;;;;;;;;4994871;28;20029;-70
2023/01/02 02:59:27;;;;;;;13.80;5.32;;;;;;;;;;4990513;28;20291;-70
2023/01/02 03:01:52;;;;;;;10.32;5.90;;;;;;;;;;4995631;28;20388;-70
2023/01/02 03:04:20;;;;;;;9.15;5.30;;;;;;;;;;4996542;28;20034;-70
2023/01/02 03:07:02;;;;;;;11.20;6.20;;;;;;;;;;4996449;28;20113;-70
2023/01/02 03:09:56;;;;;;;12.05;5.65;;;;;;;;;;4996740;28;20026;-70
2023/01/02 03:12:34;;;;;;;12.48;5.97;;;;;;;;;;4996436;28;20659;-70
2023/01/02 03:15:09;;;;;;;12.68;5.28;;;;;;;;;;4996437;28;20041;-69
2023/01/02 03:18:08;;;;;;;10.50;5.68;;;;;;;;;;4996377;28;20122;-70
2023/01/02 03:20:44;;;;;;;10.63;5.23;;;;;;;;;;4974725;28;20045;-70
2023/01/02 03:23:20;;;;;;;11.82;5.85;;;;;;;;;;4974440;28;20135;-69
2023/01/02 03:25:47;;;;;;;20.27;7.00;;;;;;;;;;4974665;28;20377;-70
2023/01/02 03:28:16;;;;;;;10.75;5.53;;;;;;;;;;4974822;28;20041;-70
2023/01/02 03:30:44;;;;;;;10.38;5.57;;;;;;;;;;4993972;28;20089;-70
2023/01/02 03:33:17;;;;;;;11.55;4.72;;;;;;;;;;4994023;28;20038;-70
2023/01/02 03:35:47;;;;;;;11.60;4.97;;;;;;;;;;4993962;28;20030;-70
2023/01/02 03:38:19;;;;;;;11.83;5.53;;;;;;;;;;4993684;28;20042;-70
2023/01/02 03:40:49;;;;;;;12.88;5.43;;;;;;;;;;4993836;28;20257;-70
2023/01/02 03:43:20;;;;;;;12.02;5.53;;;;;;;;;;4993457;28;20158;-70
2023/01/02 03:45:49;;;;;;;;;;;;;;;;;;4992880;28;20030;-70
2023/01/02 03:48:31;;;;;;;12.35;4.85;;;;;;;;;;4993600;28;19914;-70
2023/01/02 03:50:59;;;;;;;10.93;4.35;;;;;;;;;;4993275;28;20038;-70
2023/01/02 03:53:26;;;;;;;11.00;5.30;;;;;;;;;;4993482;28;20034;-70
2023/01/02 03:56:00;;;;;;;10.32;4.82;;;;;;;;;;4993537;28;20125;-70
2023/01/02 03:58:59;;;;;;;11.00;5.50;;;;;;;;;;5013265;28;20480;-69
2023/01/02 04:01:37;;;;;;;15.85;5.97;;;;;;;;;;5014724;28;20116;-70
2023/01/02 04:04:13;;;;;;;9.88;4.97;;;;;;;;;;5015179;28;20022;-69
2023/01/02 04:06:46;;;;;;;11.60;4.60;;;;;;;;;;5014914;28;20359;-70
2023/01/02 04:09:17;;;;;;;11.60;5.00;;;;;;;;;;5014959;28;20100;-71
2023/01/02 04:11:47;;;;;;;15.40;6.20;;;;;;;;;;5014886;28;20033;-70
2023/01/02 04:14:31;;;;;;;7.38;4.03;;;;;;;;;;5014885;28;20037;-69
2023/01/02 04:16:59;;;;;;;12.35;4.90;;;;;;;;;;5014922;28;20072;-70
2023/01/02 04:19:31;;;;;;;12.35;5.10;;;;;;;;;;5014463;28;20097;-70
2023/01/02 04:22:00;;;;;;;12.90;6.38;;;;;;;;;;5014661;28;20705;-70
2023/01/02 04:24:30;;;;;;;10.88;6.20;;;;;;;;;;5014447;28;20033;-69
2023/01/02 04:27:03;;;;;;;10.23;5.00;;;;;;;;;;5014736;28;20022;-70
2023/01/02 04:29:29;;;;;;;13.25;5.85;;;;;;;;;;5014396;28;20361;-69
2023/01/02 04:31:54;;;;;;;12.63;5.65;;;;;;;;;;5014455;28;20037;-70
2023/01/02 04:34:22;;;;;;;11.95;5.93;;;;;;;;;;5014267;28;20026;-70
2023/01/02 04:36:48;;;;;;;12.43;5.35;;;;;;;;;;5014460;28;20018;-70
2023/01/02 04:39:13;;;;;;;12.07;6.10;;;;;;;;;;5014429;28;20506;-70
2023/01/02 04:41:39;;;;;;;11.80;4.97;;;;;;;;;;5014220;28;20097;-68
2023/01/02 04:44:05;;;;;;;16.92;6.47;;;;;;;;;;5014234;28;20054;-70
2023/01/02 04:46:33;;;;;;;9.23;5.57;;;;;;;;;;5014423;28;20454;-69
2023/01/02 04:48:59;;;;;;;12.10;5.82;;;;;;;;;;5014088;28;20487;-70
2023/01/02 04:51:24;;;;;;;13.80;5.72;;;;;;;;;;5014039;28;20029;-69
2023/01/02 04:53:51;;;;;;;11.45;5.85;;;;;;;;;;5014068;28;20030;-70
2023/01/02 04:56:17;;;;;;;15.73;5.75;;;;;;;;;;5014218;28;20499;-70
2023/01/02 04:58:44;;;;;;;10.85;5.97;;;;;;;;;;5013802;28;20116;-69
2023/01/02 05:01:15;;;;;;;9.25;5.43;;;;;;;;;;5014061;28;20022;-69
2023/01/02 05:03:43;;;;;;;12.85;6.20;;;;;;;;;;5013771;28;20026;-71
2023/01/02 05:06:09;;;;;;;13.15;5.82;;;;;;;;;;5013980;28;20163;-71
2023/01/02 05:08:35;;;;;;;18.52;6.10;;;;;;;;;;5013916;28;20072;-71
2023/01/02 05:11:14;;;;;;;11.70;4.93;;;;;;;;;;5013758;28;20034;-70
2023/01/02 05:13:40;;;;;;;9.70;5.30;;;;;;;;;;5013781;28;20364;-70
2023/01/02 05:16:06;;;;;;;11.43;5.32;;;;;;;;;;5013826;28;20026;-70
2023/01/02 05:18:32;;;;;;;11.55;5.35;;;;;;;;;;5013167;28;20029;-70
2023/01/02 05:23:47;;;;;;;13.13;5.80;;;;;;;;;;5012410;28;20096;-70
2023/01/02 05:23:54;;;;;;;12.45;5.10;;;;;;;;;;5013473;28;20032;-70
2023/01/02 05:26:20;;;;;;;12.40;5.32;;;;;;;;;;5013616;28;20100;-70
2023/01/02 05:28:45;;;;;;;14.25;5.43;;;;;;;;;;5013385;28;20049;-70
2023/01/02 05:31:11;;;;;;;14.07;5.72;;;;;;;;;;5013251;28;20521;-69
2023/01/02 05:33:36;;;;;;;12.82;5.35;;;;;;;;;;5013081;28;20505;-69
2023/01/02 05:36:06;;;;;;;12.40;5.18;;;;;;;;;;5013459;28;20068;-68
2023/01/02 05:38:32;;;;;;;13.05;5.75;;;;;;;;;;5013316;28;20025;-67
2023/01/02 05:41:03;;;;;;;11.02;4.97;;;;;;;;;;5013193;28;20030;-69
2023/01/02 05:43:33;;;;;;;13.98;5.45;;;;;;;;;;5013058;28;20069;-70
2023/01/02 05:46:05;;;;;;;13.70;5.35;;;;;;;;;;5013239;28;20105;-70
2023/01/02 05:48:30;;;;;;;13.13;4.80;;;;;;;;;;5013071;28;20029;-68
2023/01/02 05:51:00;;;;;;;12.30;5.03;;;;;;;;;;5013059;28;20034;-70
2023/01/02 05:53:25;;;;;;;11.07;5.28;;;;;;;;;;5013053;28;20026;-70
2023/01/02 05:55:51;;;;;;;12.82;5.07;;;;;;;;;;5013212;28;20433;-69
2023/01/02 05:58:16;;;;;;;9.02;4.57;;;;;;;;;;5013313;28;20518;-69
2023/01/02 06:00:42;;;;;;;13.70;4.65;;;;;;;;;;5013167;28;20033;-67
2023/01/02 06:03:07;;;;;;;11.20;5.60;;;;;;;;;;5012884;28;20124;-67
2023/01/02 06:05:33;;;;;;;9.57;4.25;;;;;;;;;;5012923;28;20387;-68
2023/01/02 06:07:58;;;;;;;15.90;5.00;;;;;;;;;;5012939;28;20030;-68
2023/01/02 06:10:24;;;;;;;15.60;4.72;;;;;;;;;;5012636;28;20030;-68
2023/01/02 06:12:49;;;;;;;11.38;4.93;;;;;;;;;;5013117;28;20026;-67
2023/01/02 06:15:15;;;;;;;12.35;4.82;;;;;;;;;;5012911;28;20032;-69
2023/01/02 06:17:40;;;;;;;7.78;3.92;;;;;;;;;;5012744;28;20022;-70
2023/01/02 06:20:06;;;;;;;12.15;5.03;;;;;;;;;;5012848;28;20030;-70
2023/01/02 06:22:31;;;;;;;8.50;4.40;;;;;;;;;;5012907;28;20061;-70
2023/01/02 06:24:57;;;;;;;10.98;4.63;;;;;;;;;;5012872;28;20456;-69
2023/01/02 06:27:22;;;;;;;12.48;5.57;;;;;;;;;;5012877;28;20084;-70
2023/01/02 06:29:48;;;;;;;10.10;4.90;;;;;;;;;;5012489;28;20022;-69
2023/01/02 06:32:13;;;;;;;11.48;4.85;;;;;;;;;;5012479;28;20472;-71
2023/01/02 06:34:38;;;;;;;18.40;5.70;;;;;;;;;;5012536;28;20030;-70
2023/01/02 06:37:04;;;;;;;9.70;4.80;;;;;;;;;;5012566;28;20109;-70
2023/01/02 06:39:29;;;;;;;10.82;4.18;;;;;;;;;;5012651;28;20375;-70
2023/01/02 06:41:55;;;;;;;8.52;4.63;;;;;;;;;;5012414;28;20029;-69
2023/01/02 06:44:20;;;;;;;10.82;4.10;;;;;;;;;;5012314;28;20499;-70
2023/01/02 06:46:45;;;;;;;10.93;4.65;;;;;;;;;;5012739;28;20026;-69
2023/01/02 06:49:11;;;;;;;12.02;4.60;;;;;;;;;;5012543;28;20026;-69
2023/01/02 06:51:36;;;;;;;14.25;4.63;;;;;;;;;;5012385;28;20030;-70
2023/01/02 06:54:02;;;;;;;14.48;4.80;;;;;;;;;;5012270;28;20038;-70
2023/01/02 06:56:27;;;;;;;8.02;4.25;;;;;;;;;;5012427;28;20034;-70
2023/01/02 06:58:52;;;;;;;10.45;4.38;;;;;;;;;;5012086;28;20490;-70
2023/01/02 07:01:20;;;;;;;12.82;4.85;;;;;;;;;;5012365;28;20064;-70
2023/01/02 07:03:46;;;;;;;9.52;4.18;;;;;;;;;;5012421;28;20128;-70
2023/01/02 07:06:19;;;;;;;8.38;3.80;;;;;;;;;;5012179;28;20491;-70
2023/01/02 07:08:47;;;;;;;9.38;4.03;;;;;;;;;;5012431;28;20018;-70
2023/01/02 07:11:23;;;;;;;11.30;4.22;;;;;;;;;;5011966;28;20034;-69
2023/01/02 07:13:51;;;;;;;10.07;4.55;;;;;;;;;;5012094;28;20032;-70
2023/01/02 07:16:18;;;;;;;9.52;4.60;;;;;;;;;;5012279;28;20416;-70
2023/01/02 07:18:44;;;;;;;9.55;4.47;;;;;;;;;;5012318;28;20030;-70
2023/01/02 07:21:10;;;;;;;8.73;4.18;;;;;;;;;;5014326;28;20022;-70
2023/01/02 07:23:36;;;;;;;7.07;3.78;;;;;;;;;;5015766;28;20455;-70
2023/01/02 07:26:03;;;;;;;9.30;4.20;;;;;;;;;;5015556;28;20062;-70
2023/01/02 07:28:29;;;;;;;9.43;4.25;;;;;;;;;;5015169;28;20076;-70
2023/01/02 07:30:57;;;;;;;13.32;4.32;;;;;;;;;;5015494;28;20041;-70
2023/01/02 07:33:22;;;;;;;9.70;4.32;;;;;;;;;;5015397;28;20041;-68
2023/01/02 07:35:48;;;;;;;8.00;4.15;;;;;;;;;;5015437;28;20030;-68
2023/01/02 07:38:13;;;;;;;11.18;3.63;;;;;;;;;;5015509;28;20030;-68
2023/01/02 07:40:38;;;;;;;10.02;4.55;;;;;;;;;;5015307;28;20030;-68
2023/01/02 07:43:04;;;;;;;5.63;3.53;;;;;;;;;;5014899;28;20053;-68
2023/01/02 07:45:31;;;;;;;7.45;4.20;;;;;;;;;;5015389;28;20091;-67
2023/01/02 07:47:57;;;;;;;12.23;4.78;;;;;;;;;;5015231;28;20033;-70
2023/01/02 07:50:22;;;;;;;10.18;4.15;;;;;;;;;;5015247;28;20026;-70
2023/01/02 07:52:48;;;;;;;6.80;3.85;;;;;;;;;;5015397;28;20345;-70
2023/01/02 07:55:13;;;;;;;7.85;4.15;;;;;;;;;;5015139;28;20028;-70
2023/01/02 07:57:38;;;;;;;7.22;4.50;;;;;;;;;;5015114;28;20018;-69
2023/01/02 08:00:04;;;;;;;7.03;3.97;;;;;;;;;;5015260;28;20083;-70
2023/01/02 08:02:30;;;;;;;9.02;3.42;;;;;;;;;;5015074;28;20030;-69
2023/01/02 08:04:55;;;;;;;5.72;3.72;;;;;;;;;;5015069;28;20070;-69
2023/01/02 08:07:22;;;;;;;7.63;4.55;;;;;;;;;;5014935;28;20037;-69
2023/01/02 08:09:47;;;;;;;7.25;3.60;;;;;;;;;;5015093;28;20048;-70
2023/01/02 08:12:12;;;;;;;8.57;3.75;;;;;;;;;;5014639;28;20101;-69
2023/01/02 08:14:38;;;;;;;8.50;3.97;;;;;;;;;;5014982;28;20086;-70
2023/01/02 08:17:03;;;;;;;9.50;4.22;;;;;;;;;;5014829;28;20026;-69
2023/01/02 08:19:29;;;;;;;8.35;3.90;;;;;;;;;;5014610;28;20021;-68
2023/01/02 08:21:54;;;;;;;7.95;4.13;;;;;;;;;;5014646;28;20029;-69
2023/01/02 08:24:19;;;;;;;9.50;3.50;;;;;;;;;;5013225;28;20375;-69
2023/01/02 08:26:45;;;;;;;9.25;4.25;;;;;;;;;;5014497;28;20132;-68
2023/01/02 08:29:10;;;;;;;8.45;4.10;;;;;;;;;;5014473;28;20022;-69
2023/01/02 08:31:36;;;;;;;8.27;3.65;;;;;;;;;;5014006;28;20037;-69
2023/01/02 08:34:02;;;;;;;12.98;4.07;;;;;;;;;;5014307;28;20152;-70
2023/01/02 08:36:27;;;;;;;13.18;5.05;;;;;;;;;;5014402;28;20022;-70
2023/01/02 08:38:52;;;;;;;9.68;5.28;;;;;;;;;;5014356;28;20483;-70
2023/01/02 08:41:32;;;;;;;11.50;5.95;;;;;;;;;;5014084;28;20399;-70
2023/01/02 08:43:58;;;;;;;11.77;6.32;;;;;;;;;;5014090;28;20058;-70
2023/01/02 08:46:25;;;;;;;9.23;4.13;;;;;;;;;;5013953;28;20502;-68
2023/01/02 08:48:50;;;;;;;8.32;4.28;;;;;;;;;;5014298;28;20033;-69
2023/01/02 08:51:15;;;;;;;9.65;4.35;;;;;;;;;;5014188;28;20029;-70
2023/01/02 08:53:41;;;;;;;7.78;4.30;;;;;;;;;;5014182;28;20029;-67
2023/01/02 08:56:22;;;;;;;8.15;4.20;;;;;;;;;;5014045;28;20036;-68
2023/01/02 08:59:02;;;;;;;6.32;3.63;;;;;;;;;;5014182;28;20080;-68
2023/01/02 09:01:30;;;;;;;10.30;3.80;;;;;;;;;;5013950;28;20380;-67
2023/01/02 09:03:55;;;;;;;7.10;3.63;;;;;;;;;;5013662;28;20368;-69
2023/01/02 09:06:22;;;;;;;6.10;3.53;;;;;;;;;;5013626;28;20041;-70
2023/01/02 09:08:51;;;;;;;8.52;4.43;;;;;;;;;;5013870;28;20467;-70
2023/01/02 09:11:20;;;;;;;7.25;3.17;;;;;;;;;;5013533;28;20029;-69
2023/01/02 09:13:46;;;;;;;8.98;3.47;;;;;;;;;;5013741;28;20018;-68
2023/01/02 09:16:11;;;;;;;12.00;3.75;;;;;;;;;;5013788;28;20053;-68
2023/01/02 09:18:39;;;;;;;7.10;3.15;;;;;;;;;;5013782;28;20041;-70
2023/01/02 09:21:05;;;;;;;8.50;3.67;;;;;;;;;;5013583;28;20045;-70
2023/01/02 09:23:31;;;;;;;7.53;3.30;;;;;;;;;;5013590;28;20395;-70
2023/01/02 09:25:58;;;;;;;8.15;3.50;;;;;;;;;;5013209;28;20471;-70
2023/01/02 09:28:24;;;;;;;8.55;3.85;;;;;;;;;;5012972;28;20026;-70
2023/01/02 09:30:49;;;;;;;7.65;3.17;;;;;;;;;;5010363;28;20031;-70
2023/01/02 09:33:14;;;;;;;8.25;3.45;;;;;;;;;;4980576;28;20023;-70
2023/01/02 09:35:40;;;;;;;7.70;3.75;;;;;;;;;;5007857;28;20037;-68
2023/01/02 09:38:05;;;;;;;7.85;3.45;;;;;;;;;;4986929;28;20439;-67
2023/01/02 09:40:31;;;;;;;7.38;3.42;;;;;;;;;;4983145;28;20073;-70
2023/01/02 09:42:57;;;;;;;5.88;3.33;;;;;;;;;;4981828;28;20492;-69
2023/01/02 09:45:23;;;;;;;8.05;4.05;;;;;;;;;;4983886;28;20097;-70
2023/01/02 09:47:50;;;;;;;7.68;3.60;;;;;;;;;;4981390;28;20456;-70
2023/01/02 09:50:28;;;;;;;6.63;3.22;;;;;;;;;;4983020;28;20461;-68
2023/01/02 09:52:57;;;;;;;9.13;3.40;;;;;;;;;;4981303;28;20477;-68
2023/01/02 09:55:36;;;;;;;5.80;3.40;;;;;;;;;;4982507;28;20033;-70
2023/01/02 09:58:01;;;;;;;8.10;4.18;;;;;;;;;;4983543;28;20432;-69
2023/01/02 10:00:34;;;;;;;9.75;3.55;;;;;;;;;;4982290;28;20018;-69
2023/01/02 10:03:11;;;;;;;8.55;3.78;;;;;;;;;;4982934;28;20022;-70
2023/01/02 10:05:39;;;;;;;8.10;3.58;;;;;;;;;;4993235;28;20033;-69
2023/01/02 10:08:23;;;;;;;6.57;3.40;;;;;;;;;;4994320;28;20387;-70
2023/01/02 10:11:13;;;;;;;7.53;3.25;;;;;;;;;;4992785;28;20123;-69
2023/01/02 10:13:46;;;;;;;7.20;3.10;;;;;;;;;;4993806;28;20392;-69
2023/01/02 10:16:18;;;;;;;6.35;3.60;;;;;;;;;;4992477;28;20033;-69
2023/01/02 10:18:48;;;;;;;7.00;3.00;;;;;;;;;;4983404;28;20110;-68
2023/01/02 10:21:19;;;;;;;5.05;2.92;;;;;;;;;;4981894;28;20380;-68
2023/01/02 10:23:50;;;;;;;8.52;3.10;;;;;;;;;;4982223;28;20030;-68
2023/01/02 10:26:17;;;;;;;8.48;3.08;;;;;;;;;;4984032;28;20022;-68
2023/01/02 10:28:51;;;;;;;6.43;3.58;;;;;;;;;;4999348;28;20375;-68
2023/01/02 10:31:20;;;;;;;5.40;2.97;;;;;;;;;;4995055;28;20035;-68
2023/01/02 10:33:58;;;;;;;8.07;3.33;;;;;;;;;;4984374;28;20027;-68
2023/01/02 10:36:28;;;;;;;8.45;3.20;;;;;;;;;;4976391;28;20030;-68
2023/01/02 10:38:58;;;;;;;5.88;3.00;;;;;;;;;;4973702;28;20121;-67
2023/01/02 10:41:25;;;;;;;7.18;2.50;;;;;;;;;;4973566;28;20039;-67
2023/01/02 10:44:00;;;;;;;6.63;2.78;;;;;;;;;;4973329;28;20051;-68
2023/01/02 10:46:33;;;;;;;8.73;3.13;;;;;;;;;;4998673;28;20038;-70
2023/01/02 10:48:59;;;;;;;12.95;3.45;;;;;;;;;;4992485;28;20033;-70
2023/01/02 10:51:25;;;;;;;6.72;3.30;;;;;;;;;;4992654;28;20027;-70
2023/01/02 10:54:08;;;;;;;12.18;3.55;;;;;;;;;;4992763;28;20037;-70
2023/01/02 10:56:36;;;;;;;6.70;2.92;;;;;;;;;;4995300;28;20018;-68
2023/01/02 10:59:03;;;;;;;8.85;2.95;;;;;;;;;;4996569;28;20034;-69
2023/01/02 11:01:29;;;;;;;10.27;3.13;;;;;;;;;;4995274;28;20050;-70
2023/01/02 11:03:54;;;;;;;6.15;2.42;;;;;;;;;;4976797;28;20117;-72
2023/01/02 11:06:30;;;;;;;7.25;2.70;;;;;;;;;;4976671;28;20065;-71
2023/01/02 11:09:01;;;;;;;7.70;2.90;;;;;;;;;;4976791;28;20498;-68
2023/01/02 11:11:29;;;;;;;8.57;3.00;;;;;;;;;;4977037;28;20151;-68
2023/01/02 11:14:05;;;;;;;5.15;3.10;;;;;;;;;;4977015;28;20030;-66
2023/01/02 11:16:36;;;;;;;8.88;2.90;;;;;;;;;;4976996;28;20094;-70
2023/01/02 11:19:06;;;;;;;7.13;2.80;;;;;;;;;;4976823;28;20376;-65
2023/01/02 11:21:37;;;;;;;7.95;3.10;;;;;;;;;;4976644;28;20063;-67
2023/01/02 11:24:14;;;;;;;13.10;3.30;;;;;;;;;;4976800;28;20046;-67
2023/01/02 11:26:41;;;;;;;12.85;3.28;;;;;;;;;;4976456;28;20487;-67
2023/01/02 11:29:29;;;;;;;7.70;3.33;;;;;;;;;;4983818;28;20014;-66
2023/01/02 11:31:57;;;;;;;9.48;3.33;;;;;;;;;;4995445;28;20068;-65
2023/01/02 11:34:29;;;;;;;8.55;2.42;;;;;;;;;;4984823;28;20082;-67
2023/01/02 11:37:21;;;;;;;7.60;3.13;;;;;;;;;;4981051;28;20592;-66
2023/01/02 11:39:58;;;;;;;6.65;2.72;;;;;;;;;;4974427;28;20039;-67
2023/01/02 11:45:21;;;;;;;8.77;2.20;;;;;;;;;;4976283;28;20101;-67
2023/01/02 11:47:54;;;;;;;6.40;2.45;;;;;;;;;;4976196;28;20109;-66
2023/01/02 11:50:21;;;;;;;5.50;2.47;;;;;;;;;;4975896;28;20131;-66
2023/01/02 11:53:11;;;;;;;16.55;2.53;;;;;;;;;;4994370;28;20034;-67
2023/01/02 11:55:58;;;;;;;12.05;2.30;;;;;;;;;;4995656;28;20096;-66
2023/01/02 11:58:29;;;;;;;4.95;2.25;;;;;;;;;;4995506;28;20031;-69
2023/01/02 12:01:03;;;;;;;6.55;2.60;;;;;;;;;;4995438;28;20464;-70
2023/01/02 12:03:31;;;;;;;14.90;2.88;;;;;;;;;;4995495;28;20026;-69
2023/01/02 12:06:20;;;;;;;9.73;2.65;;;;;;;;;;4995320;28;20037;-67
2023/01/02 12:09:12;;;;;;;9.98;2.42;;;;;;;;;;4994763;28;20357;-69
2023/01/02 12:12:10;;;;;;;6.85;2.20;;;;;;;;;;4995316;28;20181;-68
2023/01/02 12:15:13;;;;;;;7.55;2.92;;;;;;;;;;4995082;28;20411;-68
2023/01/02 12:17:46;;;;;;;6.88;2.40;;;;;;;;;;4995183;28;20534;-69
2023/01/02 12:20:36;;;;;;;10.48;2.60;;;;;;;;;;4994945;28;20022;-69
2023/01/02 12:23:29;;;;;;;5.00;2.38;;;;;;;;;;4994775;28;20392;-69
2023/01/02 12:26:19;;;;;;;10.63;2.50;;;;;;;;;;4994946;28;20122;-68
2023/01/02 12:28:59;;;;;;;8.57;2.35;;;;;;;;;;4994851;28;20026;-68
2023/01/02 12:31:35;;;;;;;6.93;2.65;;;;;;;;;;4994766;28;20038;-69
2023/01/02 12:34:24;;;;;;;16.25;3.97;;;;;;;;;;4994669;28;20046;-69
2023/01/02 12:36:53;;;;;;;13.10;3.97;;;;;;;;;;4994876;28;20030;-69
2023/01/02 12:39:54;;;;;;;17.17;3.75;;;;;;;;;;4994668;28;20109;-69
2023/01/02 12:42:34;;;;;;;13.25;2.65;;;;;;;;;;4994651;28;20042;-69
2023/01/02 12:45:00;;;;;;;;;;;;;;;;;;4986031;28;20031;-68
2023/01/02 12:47:37;;;;;;;5.78;2.38;;;;;;;;;;4984319;28;19913;-68
2023/01/02 12:50:30;;;;;;;6.88;2.08;;;;;;;;;;4982607;28;20037;-68
2023/01/02 12:53:23;;;;;;;14.32;3.58;;;;;;;;;;4973873;28;20046;-68
2023/01/02 12:56:03;;;;;;;6.45;2.20;;;;;;;;;;4939477;29;20059;-71
2023/01/02 12:58:51;;;;;;;7.80;2.20;;;;;;;;;;4952980;29;20370;-67
2023/01/02 13:01:25;;;;;;;6.43;2.20;;;;;;;;;;4952313;29;20035;-69
2023/01/02 13:04:02;;;;;;;7.35;2.25;;;;;;;;;;4951699;29;20040;-70
2023/01/02 13:06:38;;;;;;;12.13;2.53;;;;;;;;;;4952953;29;20122;-69
2023/01/02 13:09:21;;;;;;;12.05;2.33;;;;;;;;;;4952928;29;20492;-69
2023/01/02 13:11:57;;;;;;;9.75;2.55;;;;;;;;;;4953254;29;20393;-69
2023/01/02 13:14:30;;;;;;;13.05;2.83;;;;;;;;;;4953165;29;20122;-68
2023/01/02 13:17:19;;;;;;;7.00;2.38;;;;;;;;;;4952952;29;20461;-69
2023/01/02 13:19:50;;;;;;;11.45;2.25;;;;;;;;;;4952942;28;20043;-69
2023/01/02 13:22:39;;;;;;;9.02;2.08;;;;;;;;;;4953096;29;20027;-70
2023/01/02 13:25:12;;;;;;;11.52;2.35;;;;;;;;;;4952415;29;20031;-69
2023/01/02 13:27:38;;;;;;;8.82;2.00;;;;;;;;;;4953025;29;20036;-69
2023/01/02 13:30:04;;;;;;;4.80;1.92;;;;;;;;;;4952708;29;20580;-68
2023/01/02 13:32:30;;;;;;;19.20;2.20;;;;;;;;;;4961318;28;20097;-68
2023/01/02 13:34:59;;;;;;;7.70;2.25;;;;;;;;;;4974001;28;20027;-69
2023/01/02 13:37:27;;;;;;;7.68;1.90;;;;;;;;;;4974124;28;20022;-67
2023/01/02 13:39:56;;;;;;;6.75;2.25;;;;;;;;;;4974028;28;20035;-67
2023/01/02 13:45:30;;;;;;;7.85;2.13;;;;;;;;;;4973821;28;20033;-68
2023/01/02 13:48:01;;;;;;;6.25;1.95;;;;;;;;;;4993310;28;20027;-68
2023/01/02 13:50:37;;;;;;;9.45;2.00;;;;;;;;;;4993071;28;20472;-67
2023/01/02 13:53:08;;;;;;;7.93;2.13;;;;;;;;;;4993119;28;20531;-69
2023/01/02 13:55:40;;;;;;;7.28;1.90;;;;;;;;;;4993323;28;20030;-68
2023/01/02 13:58:14;;;;;;;14.00;2.38;;;;;;;;;;4993167;28;20101;-67
2023/01/02 14:00:44;;;;;;;7.28;2.03;;;;;;;;;;4991685;28;20030;-68
2023/01/02 14:03:31;;;;;;;;;;;;;;;;;;4993633;28;20563;-70
2023/01/02 14:05:59;;;;;;;8.07;1.98;;;;;;;;;;4993048;28;19918;-69
2023/01/02 14:09:00;;;;;;;3.97;1.40;;;;;;;;;;4992976;28;20468;-68
2023/01/02 14:11:51;;;;;;;7.63;2.38;;;;;;;;;;4993175;28;20030;-71
2023/01/02 14:14:43;;;;;;;8.85;2.58;;;;;;;;;;4992231;28;20039;-69
2023/01/02 14:17:46;;;;;;;14.77;3.50;;;;;;;;;;4993063;28;20105;-68
2023/01/02 14:20:17;;;;;;;10.15;2.28;;;;;;;;;;4993255;28;20023;-67
2023/01/02 14:22:51;;;;;;;9.82;2.38;;;;;;;;;;4993129;28;20062;-70
2023/01/02 14:25:18;;;;;;;10.38;3.53;;;;;;;;;;4992601;28;20034;-69
2023/01/02 14:27:53;;;;;;;15.48;3.38;;;;;;;;;;4993069;28;20468;-68
2023/01/02 14:30:29;;;;;;;8.55;2.72;;;;;;;;;;5010812;28;20375;-67
2023/01/02 14:32:57;;;;;;;12.63;2.05;;;;;;;;;;5016789;28;20036;-68
2023/01/02 14:35:36;;;;;;;9.07;2.10;;;;;;;;;;5016440;28;20025;-68
2023/01/02 14:38:21;;;;;;;8.18;2.35;;;;;;;;;;5016615;28;20037;-69
2023/01/02 14:40:46;;;;;;;4.85;1.83;;;;;;;;;;5016523;28;20026;-69
2023/01/02 14:43:31;;;;;;;6.22;2.08;;;;;;;;;;5015990;28;20056;-68
2023/01/02 14:46:18;;;;;;;9.27;2.00;;;;;;;;;;5016405;28;20075;-67
2023/01/02 14:49:06;;;;;;;3.65;1.50;;;;;;;;;;5015965;28;20037;-69
2023/01/02 14:51:37;;;;;;;8.43;2.10;;;;;;;;;;5016266;28;20026;-70
2023/01/02 14:54:24;;;;;;;6.68;2.13;;;;;;;;;;5015152;28;20586;-70
2023/01/02 14:57:00;;;;;;;8.40;2.38;;;;;;;;;;5015962;28;20519;-69
2023/01/02 14:59:34;;;;;;;5.57;1.77;;;;;;;;;;5014782;28;20022;-69
2023/01/02 15:02:06;;;;;;;11.70;2.72;;;;;;;;;;5015956;28;20054;-69
2023/01/02 15:04:38;;;;;;;7.00;1.77;;;;;;;;;;5014555;28;20506;-69
2023/01/02 15:07:14;;;;;;;8.32;1.88;;;;;;;;;;5015632;28;20091;-69
2023/01/02 15:09:44;;;;;;;10.93;2.05;;;;;;;;;;5016060;28;20033;-69